sensor_id;sensor_type;location;lat;lon;timestamp;P1;durP1;ratioP1;P2;durP2;ratioP2
43509;SDS011;29105;57.764;40.952;2023-07-30T00:02:04;3.25;;;2.20;;
43509;SDS011;29105;57.764;40.952;2023-07-30T00:04:30;3.08;;;2.33;;
43509;SDS011;29105;57.764;40.952;2023-07-30T00:06:58;3.67;;;2.13;;
43509;SDS011;29105;57.764;40.952;2023-07-30T00:09:24;2.85;;;1.80;;
43509;SDS011;29105;57.764;40.952;2023-07-30T00:11:50;4.32;;;1.90;;
43509;SDS011;29105;57.764;40.952;2023-07-30T00:14:15;3.15;;;2.22;;
43509;SDS011;29105;57.764;40.952;2023-07-30T00:16:41;5.00;;;2.25;;
43509;SDS011;29105;57.764;40.952;2023-07-30T00:19:07;3.53;;;2.28;;
43509;SDS011;29105;57.764;40.952;2023-07-30T00:21:32;2.72;;;1.80;;
43509;SDS011;29105;57.764;40.952;2023-07-30T00:23:58;6.22;;;1.98;;
43509;SDS011;29105;57.764;40.952;2023-07-30T00:26:24;4.15;;;2.22;;
43509;SDS011;29105;57.764;40.952;2023-07-30T00:28:52;7.43;;;2.10;;
43509;SDS011;29105;57.764;40.952;2023-07-30T00:31:17;3.08;;;2.00;;
43509;SDS011;29105;57.764;40.952;2023-07-30T00:33:43;4.22;;;1.98;;
43509;SDS011;29105;57.764;40.952;2023-07-30T00:36:09;3.38;;;2.15;;
43509;SDS011;29105;57.764;40.952;2023-07-30T00:38:34;4.22;;;2.28;;
43509;SDS011;29105;57.764;40.952;2023-07-30T00:41:00;5.05;;;2.92;;
43509;SDS011;29105;57.764;40.952;2023-07-30T00:43:25;5.60;;;2.15;;
43509;SDS011;29105;57.764;40.952;2023-07-30T00:45:51;3.97;;;2.10;;
43509;SDS011;29105;57.764;40.952;2023-07-30T00:48:17;8.93;;;2.38;;
43509;SDS011;29105;57.764;40.952;2023-07-30T00:50:43;3.85;;;1.80;;
43509;SDS011;29105;57.764;40.952;2023-07-30T00:53:09;5.60;;;2.00;;
43509;SDS011;29105;57.764;40.952;2023-07-30T00:55:36;5.85;;;2.63;;
43509;SDS011;29105;57.764;40.952;2023-07-30T00:58:03;5.00;;;1.95;;
43509;SDS011;29105;57.764;40.952;2023-07-30T01:00:29;5.60;;;2.50;;
43509;SDS011;29105;57.764;40.952;2023-07-30T01:02:55;4.55;;;2.35;;
43509;SDS011;29105;57.764;40.952;2023-07-30T01:05:21;2.85;;;1.70;;
43509;SDS011;29105;57.764;40.952;2023-07-30T01:07:47;4.15;;;2.20;;
43509;SDS011;29105;57.764;40.952;2023-07-30T01:10:13;3.92;;;2.33;;
43509;SDS011;29105;57.764;40.952;2023-07-30T01:12:41;4.70;;;2.05;;
43509;SDS011;29105;57.764;40.952;2023-07-30T01:15:07;2.47;;;2.15;;
43509;SDS011;29105;57.764;40.952;2023-07-30T01:17:35;4.30;;;2.20;;
43509;SDS011;29105;57.764;40.952;2023-07-30T01:20:01;6.45;;;2.28;;
43509;SDS011;29105;57.764;40.952;2023-07-30T01:22:31;5.72;;;2.30;;
43509;SDS011;29105;57.764;40.952;2023-07-30T01:24:56;3.65;;;2.33;;
43509;SDS011;29105;57.764;40.952;2023-07-30T01:27:23;3.33;;;1.80;;
43509;SDS011;29105;57.764;40.952;2023-07-30T01:29:52;2.72;;;2.25;;
43509;SDS011;29105;57.764;40.952;2023-07-30T01:32:20;3.55;;;1.67;;
43509;SDS011;29105;57.764;40.952;2023-07-30T01:34:52;2.47;;;1.65;;
43509;SDS011;29105;57.764;40.952;2023-07-30T01:37:18;4.18;;;1.92;;
43509;SDS011;29105;57.764;40.952;2023-07-30T01:39:44;3.90;;;1.60;;
43509;SDS011;29105;57.764;40.952;2023-07-30T01:42:14;2.72;;;1.75;;
43509;SDS011;29105;57.764;40.952;2023-07-30T01:44:40;1.42;;;1.08;;
43509;SDS011;29105;57.764;40.952;2023-07-30T01:47:06;2.90;;;1.58;;
43509;SDS011;29105;57.764;40.952;2023-07-30T01:49:32;1.80;;;1.13;;
43509;SDS011;29105;57.764;40.952;2023-07-30T01:51:57;2.38;;;1.05;;
43509;SDS011;29105;57.764;40.952;2023-07-30T01:54:23;2.63;;;1.15;;
43509;SDS011;29105;57.764;40.952;2023-07-30T01:56:49;2.42;;;1.13;;
43509;SDS011;29105;57.764;40.952;2023-07-30T01:59:14;2.00;;;1.02;;
43509;SDS011;29105;57.764;40.952;2023-07-30T02:01:41;5.82;;;1.20;;
43509;SDS011;29105;57.764;40.952;2023-07-30T02:04:07;2.88;;;1.25;;
43509;SDS011;29105;57.764;40.952;2023-07-30T02:06:33;1.45;;;0.85;;
43509;SDS011;29105;57.764;40.952;2023-07-30T02:08:58;4.38;;;1.10;;
43509;SDS011;29105;57.764;40.952;2023-07-30T02:11:24;3.15;;;0.98;;
43509;SDS011;29105;57.764;40.952;2023-07-30T02:13:50;1.60;;;1.00;;
43509;SDS011;29105;57.764;40.952;2023-07-30T02:16:15;1.50;;;0.98;;
43509;SDS011;29105;57.764;40.952;2023-07-30T02:18:41;1.88;;;0.80;;
43509;SDS011;29105;57.764;40.952;2023-07-30T02:21:07;2.13;;;0.80;;
43509;SDS011;29105;57.764;40.952;2023-07-30T02:23:33;1.63;;;1.00;;
43509;SDS011;29105;57.764;40.952;2023-07-30T02:25:58;1.90;;;0.75;;
43509;SDS011;29105;57.764;40.952;2023-07-30T02:28:24;4.53;;;0.70;;
43509;SDS011;29105;57.764;40.952;2023-07-30T02:30:50;2.80;;;1.20;;
43509;SDS011;29105;57.764;40.952;2023-07-30T02:33:15;1.63;;;0.85;;
43509;SDS011;29105;57.764;40.952;2023-07-30T02:35:42;1.48;;;0.90;;
43509;SDS011;29105;57.764;40.952;2023-07-30T02:38:08;1.92;;;1.23;;
43509;SDS011;29105;57.764;40.952;2023-07-30T02:40:34;1.00;;;0.63;;
43509;SDS011;29105;57.764;40.952;2023-07-30T02:43:00;4.28;;;0.80;;
43509;SDS011;29105;57.764;40.952;2023-07-30T02:45:25;3.22;;;0.75;;
43509;SDS011;29105;57.764;40.952;2023-07-30T02:47:51;4.85;;;0.85;;
43509;SDS011;29105;57.764;40.952;2023-07-30T02:50:16;6.63;;;0.93;;
43509;SDS011;29105;57.764;40.952;2023-07-30T02:56:23;3.08;;;0.63;;
43509;SDS011;29105;57.764;40.952;2023-07-30T02:58:48;1.90;;;1.08;;
43509;SDS011;29105;57.764;40.952;2023-07-30T03:01:14;3.85;;;0.93;;
43509;SDS011;29105;57.764;40.952;2023-07-30T03:03:40;2.10;;;0.77;;
43509;SDS011;29105;57.764;40.952;2023-07-30T03:06:05;2.47;;;0.77;;
43509;SDS011;29105;57.764;40.952;2023-07-30T03:08:31;1.48;;;0.93;;
43509;SDS011;29105;57.764;40.952;2023-07-30T03:10:57;3.67;;;0.85;;
43509;SDS011;29105;57.764;40.952;2023-07-30T03:13:24;1.58;;;0.85;;
43509;SDS011;29105;57.764;40.952;2023-07-30T03:15:50;5.18;;;0.90;;
43509;SDS011;29105;57.764;40.952;2023-07-30T03:18:15;2.30;;;0.90;;
43509;SDS011;29105;57.764;40.952;2023-07-30T03:20:41;4.15;;;0.98;;
43509;SDS011;29105;57.764;40.952;2023-07-30T03:23:07;1.38;;;0.73;;
43509;SDS011;29105;57.764;40.952;2023-07-30T03:25:32;1.45;;;0.90;;
43509;SDS011;29105;57.764;40.952;2023-07-30T03:27:58;1.15;;;0.55;;
43509;SDS011;29105;57.764;40.952;2023-07-30T03:30:24;2.35;;;1.10;;
43509;SDS011;29105;57.764;40.952;2023-07-30T03:32:49;3.55;;;1.00;;
43509;SDS011;29105;57.764;40.952;2023-07-30T03:35:15;1.50;;;0.95;;
43509;SDS011;29105;57.764;40.952;2023-07-30T03:37:41;1.92;;;1.08;;
43509;SDS011;29105;57.764;40.952;2023-07-30T03:40:07;1.50;;;0.90;;
43509;SDS011;29105;57.764;40.952;2023-07-30T03:42:33;1.83;;;0.90;;
43509;SDS011;29105;57.764;40.952;2023-07-30T03:44:59;4.80;;;1.02;;
43509;SDS011;29105;57.764;40.952;2023-07-30T03:47:24;2.53;;;0.60;;
43509;SDS011;29105;57.764;40.952;2023-07-30T03:49:50;3.90;;;0.60;;
43509;SDS011;29105;57.764;40.952;2023-07-30T03:52:16;0.75;;;0.40;;
43509;SDS011;29105;57.764;40.952;2023-07-30T03:54:42;1.23;;;0.60;;
43509;SDS011;29105;57.764;40.952;2023-07-30T03:57:08;1.17;;;0.50;;
43509;SDS011;29105;57.764;40.952;2023-07-30T03:59:34;1.95;;;0.73;;
43509;SDS011;29105;57.764;40.952;2023-07-30T04:01:59;1.67;;;0.75;;
43509;SDS011;29105;57.764;40.952;2023-07-30T04:04:25;1.00;;;0.50;;
43509;SDS011;29105;57.764;40.952;2023-07-30T04:06:51;1.00;;;0.70;;
43509;SDS011;29105;57.764;40.952;2023-07-30T04:09:16;1.27;;;0.60;;
43509;SDS011;29105;57.764;40.952;2023-07-30T04:11:42;1.15;;;0.60;;
43509;SDS011;29105;57.764;40.952;2023-07-30T04:14:08;1.58;;;0.57;;
43509;SDS011;29105;57.764;40.952;2023-07-30T04:16:34;3.55;;;0.90;;
43509;SDS011;29105;57.764;40.952;2023-07-30T04:19:00;1.48;;;0.60;;
43509;SDS011;29105;57.764;40.952;2023-07-30T04:21:26;2.17;;;0.80;;
43509;SDS011;29105;57.764;40.952;2023-07-30T04:23:51;1.55;;;0.70;;
43509;SDS011;29105;57.764;40.952;2023-07-30T04:26:17;1.20;;;0.50;;
43509;SDS011;29105;57.764;40.952;2023-07-30T04:28:43;1.15;;;0.40;;
43509;SDS011;29105;57.764;40.952;2023-07-30T04:31:08;3.15;;;0.77;;
43509;SDS011;29105;57.764;40.952;2023-07-30T04:33:34;2.33;;;0.75;;
43509;SDS011;29105;57.764;40.952;2023-07-30T04:36:00;1.23;;;0.65;;
43509;SDS011;29105;57.764;40.952;2023-07-30T04:38:25;1.42;;;0.40;;
43509;SDS011;29105;57.764;40.952;2023-07-30T04:40:51;2.80;;;0.40;;
43509;SDS011;29105;57.764;40.952;2023-07-30T04:43:17;1.10;;;0.60;;
43509;SDS011;29105;57.764;40.952;2023-07-30T04:45:42;1.38;;;0.52;;
43509;SDS011;29105;57.764;40.952;2023-07-30T04:48:08;1.63;;;0.70;;
43509;SDS011;29105;57.764;40.952;2023-07-30T04:50:34;3.15;;;0.47;;
43509;SDS011;29105;57.764;40.952;2023-07-30T04:52:59;0.95;;;0.47;;
43509;SDS011;29105;57.764;40.952;2023-07-30T04:55:25;8.77;;;0.88;;
43509;SDS011;29105;57.764;40.952;2023-07-30T04:57:51;1.45;;;0.50;;
43509;SDS011;29105;57.764;40.952;2023-07-30T05:00:16;1.33;;;0.68;;
43509;SDS011;29105;57.764;40.952;2023-07-30T05:02:42;1.20;;;0.70;;
43509;SDS011;29105;57.764;40.952;2023-07-30T05:05:08;3.35;;;0.50;;
43509;SDS011;29105;57.764;40.952;2023-07-30T05:07:34;1.88;;;0.50;;
43509;SDS011;29105;57.764;40.952;2023-07-30T05:09:59;1.45;;;0.60;;
43509;SDS011;29105;57.764;40.952;2023-07-30T05:12:25;0.90;;;0.40;;
43509;SDS011;29105;57.764;40.952;2023-07-30T05:14:51;2.13;;;0.60;;
43509;SDS011;29105;57.764;40.952;2023-07-30T05:17:17;3.88;;;0.40;;
43509;SDS011;29105;57.764;40.952;2023-07-30T05:19:45;1.25;;;0.47;;
43509;SDS011;29105;57.764;40.952;2023-07-30T05:22:10;1.65;;;0.40;;
43509;SDS011;29105;57.764;40.952;2023-07-30T05:24:36;2.45;;;0.70;;
43509;SDS011;29105;57.764;40.952;2023-07-30T05:27:02;1.45;;;0.50;;
43509;SDS011;29105;57.764;40.952;2023-07-30T05:29:28;2.28;;;0.63;;
43509;SDS011;29105;57.764;40.952;2023-07-30T05:31:53;2.53;;;0.70;;
43509;SDS011;29105;57.764;40.952;2023-07-30T05:34:19;3.60;;;0.50;;
43509;SDS011;29105;57.764;40.952;2023-07-30T05:36:44;2.13;;;0.50;;
43509;SDS011;29105;57.764;40.952;2023-07-30T05:39:10;1.42;;;0.50;;
43509;SDS011;29105;57.764;40.952;2023-07-30T05:41:36;2.30;;;0.50;;
43509;SDS011;29105;57.764;40.952;2023-07-30T05:44:01;2.10;;;0.45;;
43509;SDS011;29105;57.764;40.952;2023-07-30T05:46:27;1.00;;;0.40;;
43509;SDS011;29105;57.764;40.952;2023-07-30T05:48:55;1.42;;;0.63;;
43509;SDS011;29105;57.764;40.952;2023-07-30T05:51:20;3.88;;;0.93;;
43509;SDS011;29105;57.764;40.952;2023-07-30T05:53:46;1.88;;;0.60;;
43509;SDS011;29105;57.764;40.952;2023-07-30T05:56:12;3.70;;;0.70;;
43509;SDS011;29105;57.764;40.952;2023-07-30T05:58:39;2.45;;;1.17;;
43509;SDS011;29105;57.764;40.952;2023-07-30T06:01:05;1.20;;;0.52;;
43509;SDS011;29105;57.764;40.952;2023-07-30T06:03:32;2.05;;;0.88;;
43509;SDS011;29105;57.764;40.952;2023-07-30T06:06:00;2.13;;;1.05;;
43509;SDS011;29105;57.764;40.952;2023-07-30T06:08:26;3.13;;;1.83;;
43509;SDS011;29105;57.764;40.952;2023-07-30T06:10:52;2.45;;;1.38;;
43509;SDS011;29105;57.764;40.952;2023-07-30T06:13:18;2.22;;;1.63;;
43509;SDS011;29105;57.764;40.952;2023-07-30T06:15:43;3.17;;;1.27;;
43509;SDS011;29105;57.764;40.952;2023-07-30T06:18:09;2.67;;;1.40;;
43509;SDS011;29105;57.764;40.952;2023-07-30T06:20:35;10.93;;;1.13;;
43509;SDS011;29105;57.764;40.952;2023-07-30T06:23:01;2.40;;;1.35;;
43509;SDS011;29105;57.764;40.952;2023-07-30T06:25:27;2.03;;;1.17;;
43509;SDS011;29105;57.764;40.952;2023-07-30T06:27:52;2.65;;;1.30;;
43509;SDS011;29105;57.764;40.952;2023-07-30T06:30:18;2.10;;;0.60;;
43509;SDS011;29105;57.764;40.952;2023-07-30T06:32:44;2.60;;;1.17;;
43509;SDS011;29105;57.764;40.952;2023-07-30T06:35:09;2.25;;;0.40;;
43509;SDS011;29105;57.764;40.952;2023-07-30T06:37:35;1.27;;;0.60;;
43509;SDS011;29105;57.764;40.952;2023-07-30T06:40:01;1.75;;;0.50;;
43509;SDS011;29105;57.764;40.952;2023-07-30T06:42:31;1.75;;;1.02;;
43509;SDS011;29105;57.764;40.952;2023-07-30T06:44:57;2.50;;;0.98;;
43509;SDS011;29105;57.764;40.952;2023-07-30T06:47:22;1.98;;;0.80;;
43509;SDS011;29105;57.764;40.952;2023-07-30T06:49:48;3.83;;;1.52;;
43509;SDS011;29105;57.764;40.952;2023-07-30T06:52:14;4.03;;;1.10;;
43509;SDS011;29105;57.764;40.952;2023-07-30T06:54:39;2.70;;;0.93;;
43509;SDS011;29105;57.764;40.952;2023-07-30T06:57:05;3.63;;;1.30;;
43509;SDS011;29105;57.764;40.952;2023-07-30T06:59:31;3.55;;;0.85;;
43509;SDS011;29105;57.764;40.952;2023-07-30T07:01:57;3.28;;;1.20;;
43509;SDS011;29105;57.764;40.952;2023-07-30T07:04:22;1.10;;;0.30;;
43509;SDS011;29105;57.764;40.952;2023-07-30T07:06:48;1.60;;;0.28;;
43509;SDS011;29105;57.764;40.952;2023-07-30T07:09:14;5.57;;;0.30;;
43509;SDS011;29105;57.764;40.952;2023-07-30T07:11:39;0.95;;;0.22;;
43509;SDS011;29105;57.764;40.952;2023-07-30T07:14:05;0.52;;;0.20;;
43509;SDS011;29105;57.764;40.952;2023-07-30T07:16:31;0.30;;;0.10;;
43509;SDS011;29105;57.764;40.952;2023-07-30T07:18:56;0.77;;;0.20;;
43509;SDS011;29105;57.764;40.952;2023-07-30T07:21:22;1.13;;;0.25;;
43509;SDS011;29105;57.764;40.952;2023-07-30T07:23:48;2.28;;;0.40;;
43509;SDS011;29105;57.764;40.952;2023-07-30T07:26:13;1.02;;;0.20;;
43509;SDS011;29105;57.764;40.952;2023-07-30T07:28:39;1.45;;;0.40;;
43509;SDS011;29105;57.764;40.952;2023-07-30T07:31:07;1.80;;;0.25;;
43509;SDS011;29105;57.764;40.952;2023-07-30T07:33:32;1.33;;;0.55;;
43509;SDS011;29105;57.764;40.952;2023-07-30T07:36:05;1.35;;;0.38;;
43509;SDS011;29105;57.764;40.952;2023-07-30T07:38:32;1.17;;;0.30;;
43509;SDS011;29105;57.764;40.952;2023-07-30T07:40:58;3.00;;;0.98;;
43509;SDS011;29105;57.764;40.952;2023-07-30T07:43:24;4.95;;;0.70;;
43509;SDS011;29105;57.764;40.952;2023-07-30T07:45:50;1.98;;;0.82;;
43509;SDS011;29105;57.764;40.952;2023-07-30T07:48:15;3.05;;;0.90;;
43509;SDS011;29105;57.764;40.952;2023-07-30T07:50:41;1.88;;;0.60;;
43509;SDS011;29105;57.764;40.952;2023-07-30T07:53:07;1.02;;;0.60;;
43509;SDS011;29105;57.764;40.952;2023-07-30T07:55:32;1.45;;;0.30;;
43509;SDS011;29105;57.764;40.952;2023-07-30T07:57:58;2.30;;;0.43;;
43509;SDS011;29105;57.764;40.952;2023-07-30T08:00:24;1.80;;;0.50;;
43509;SDS011;29105;57.764;40.952;2023-07-30T08:02:49;1.65;;;0.70;;
43509;SDS011;29105;57.764;40.952;2023-07-30T08:05:18;1.42;;;0.52;;
43509;SDS011;29105;57.764;40.952;2023-07-30T08:07:48;1.80;;;0.70;;
43509;SDS011;29105;57.764;40.952;2023-07-30T08:10:13;2.40;;;0.60;;
43509;SDS011;29105;57.764;40.952;2023-07-30T08:12:39;1.48;;;0.60;;
43509;SDS011;29105;57.764;40.952;2023-07-30T08:15:05;1.00;;;0.40;;
43509;SDS011;29105;57.764;40.952;2023-07-30T08:17:31;1.70;;;0.50;;
43509;SDS011;29105;57.764;40.952;2023-07-30T08:19:56;1.95;;;0.40;;
43509;SDS011;29105;57.764;40.952;2023-07-30T08:22:22;4.70;;;0.77;;
43509;SDS011;29105;57.764;40.952;2023-07-30T08:24:48;0.75;;;0.30;;
43509;SDS011;29105;57.764;40.952;2023-07-30T08:27:14;1.08;;;0.40;;
43509;SDS011;29105;57.764;40.952;2023-07-30T08:29:40;1.92;;;0.50;;
43509;SDS011;29105;57.764;40.952;2023-07-30T08:32:06;3.05;;;0.60;;
43509;SDS011;29105;57.764;40.952;2023-07-30T08:34:31;2.85;;;0.90;;
43509;SDS011;29105;57.764;40.952;2023-07-30T08:36:57;1.33;;;0.47;;
43509;SDS011;29105;57.764;40.952;2023-07-30T08:39:23;1.48;;;0.40;;
43509;SDS011;29105;57.764;40.952;2023-07-30T08:41:48;0.93;;;0.30;;
43509;SDS011;29105;57.764;40.952;2023-07-30T08:44:14;2.05;;;0.52;;
43509;SDS011;29105;57.764;40.952;2023-07-30T08:46:40;0.82;;;0.38;;
43509;SDS011;29105;57.764;40.952;2023-07-30T08:49:13;0.70;;;0.30;;
43509;SDS011;29105;57.764;40.952;2023-07-30T08:51:38;1.40;;;0.47;;
43509;SDS011;29105;57.764;40.952;2023-07-30T08:54:06;1.77;;;0.68;;
43509;SDS011;29105;57.764;40.952;2023-07-30T08:56:33;1.30;;;0.38;;
43509;SDS011;29105;57.764;40.952;2023-07-30T08:58:59;0.98;;;0.40;;
43509;SDS011;29105;57.764;40.952;2023-07-30T09:01:27;3.35;;;0.45;;
43509;SDS011;29105;57.764;40.952;2023-07-30T09:03:56;0.85;;;0.30;;
43509;SDS011;29105;57.764;40.952;2023-07-30T09:06:25;3.13;;;0.50;;
43509;SDS011;29105;57.764;40.952;2023-07-30T09:08:51;1.02;;;0.50;;
43509;SDS011;29105;57.764;40.952;2023-07-30T09:11:18;1.77;;;0.32;;
43509;SDS011;29105;57.764;40.952;2023-07-30T09:13:43;1.27;;;0.45;;
43509;SDS011;29105;57.764;40.952;2023-07-30T09:16:12;0.82;;;0.20;;
43509;SDS011;29105;57.764;40.952;2023-07-30T09:18:39;1.50;;;0.40;;
43509;SDS011;29105;57.764;40.952;2023-07-30T09:21:10;0.60;;;0.22;;
43509;SDS011;29105;57.764;40.952;2023-07-30T09:23:40;1.00;;;0.30;;
43509;SDS011;29105;57.764;40.952;2023-07-30T09:26:10;1.17;;;0.40;;
43509;SDS011;29105;57.764;40.952;2023-07-30T09:28:36;1.98;;;0.45;;
43509;SDS011;29105;57.764;40.952;2023-07-30T09:31:04;2.70;;;0.50;;
43509;SDS011;29105;57.764;40.952;2023-07-30T09:33:31;1.17;;;0.63;;
43509;SDS011;29105;57.764;40.952;2023-07-30T09:35:58;2.35;;;0.55;;
43509;SDS011;29105;57.764;40.952;2023-07-30T09:38:27;1.63;;;0.57;;
43509;SDS011;29105;57.764;40.952;2023-07-30T09:41:02;2.20;;;0.43;;
43509;SDS011;29105;57.764;40.952;2023-07-30T09:43:29;2.20;;;0.73;;
43509;SDS011;29105;57.764;40.952;2023-07-30T09:46:05;2.22;;;0.60;;
43509;SDS011;29105;57.764;40.952;2023-07-30T09:48:32;0.90;;;0.50;;
43509;SDS011;29105;57.764;40.952;2023-07-30T09:51:02;1.30;;;0.43;;
43509;SDS011;29105;57.764;40.952;2023-07-30T09:53:32;2.30;;;0.50;;
43509;SDS011;29105;57.764;40.952;2023-07-30T09:56:02;1.48;;;0.30;;
43509;SDS011;29105;57.764;40.952;2023-07-30T09:58:29;1.40;;;0.43;;
43509;SDS011;29105;57.764;40.952;2023-07-30T10:00:56;1.55;;;0.43;;
43509;SDS011;29105;57.764;40.952;2023-07-30T10:03:24;1.52;;;0.57;;
43509;SDS011;29105;57.764;40.952;2023-07-30T10:05:51;1.63;;;0.40;;
43509;SDS011;29105;57.764;40.952;2023-07-30T10:08:21;1.20;;;0.30;;
43509;SDS011;29105;57.764;40.952;2023-07-30T10:10:49;1.88;;;0.30;;
43509;SDS011;29105;57.764;40.952;2023-07-30T10:13:16;2.00;;;0.35;;
43509;SDS011;29105;57.764;40.952;2023-07-30T10:15:43;2.53;;;0.38;;
43509;SDS011;29105;57.764;40.952;2023-07-30T10:18:08;1.15;;;0.60;;
43509;SDS011;29105;57.764;40.952;2023-07-30T10:20:34;1.20;;;0.30;;
43509;SDS011;29105;57.764;40.952;2023-07-30T10:23:01;1.58;;;0.50;;
43509;SDS011;29105;57.764;40.952;2023-07-30T10:25:41;1.52;;;0.40;;
43509;SDS011;29105;57.764;40.952;2023-07-30T10:28:07;1.27;;;0.45;;
43509;SDS011;29105;57.764;40.952;2023-07-30T10:30:33;2.33;;;0.40;;
43509;SDS011;29105;57.764;40.952;2023-07-30T10:33:00;1.85;;;0.40;;
43509;SDS011;29105;57.764;40.952;2023-07-30T10:35:37;1.70;;;0.65;;
43509;SDS011;29105;57.764;40.952;2023-07-30T10:38:17;2.33;;;0.77;;
43509;SDS011;29105;57.764;40.952;2023-07-30T10:41:06;1.48;;;0.30;;
43509;SDS011;29105;57.764;40.952;2023-07-30T10:43:34;0.90;;;0.20;;
43509;SDS011;29105;57.764;40.952;2023-07-30T10:46:01;1.15;;;0.40;;
43509;SDS011;29105;57.764;40.952;2023-07-30T10:48:30;1.55;;;0.57;;
43509;SDS011;29105;57.764;40.952;2023-07-30T10:50:58;0.77;;;0.20;;
43509;SDS011;29105;57.764;40.952;2023-07-30T10:53:25;1.00;;;0.30;;
43509;SDS011;29105;57.764;40.952;2023-07-30T10:55:51;1.65;;;0.50;;
43509;SDS011;29105;57.764;40.952;2023-07-30T10:58:18;0.73;;;0.22;;
43509;SDS011;29105;57.764;40.952;2023-07-30T11:00:44;0.88;;;0.40;;
43509;SDS011;29105;57.764;40.952;2023-07-30T11:03:09;1.30;;;0.30;;
43509;SDS011;29105;57.764;40.952;2023-07-30T11:05:37;1.77;;;0.57;;
43509;SDS011;29105;57.764;40.952;2023-07-30T11:08:04;2.05;;;0.55;;
43509;SDS011;29105;57.764;40.952;2023-07-30T11:10:29;3.88;;;1.00;;
43509;SDS011;29105;57.764;40.952;2023-07-30T11:12:55;1.63;;;0.50;;
43509;SDS011;29105;57.764;40.952;2023-07-30T11:15:22;1.88;;;0.35;;
43509;SDS011;29105;57.764;40.952;2023-07-30T11:17:51;2.28;;;0.77;;
43509;SDS011;29105;57.764;40.952;2023-07-30T11:20:24;1.52;;;0.32;;
43509;SDS011;29105;57.764;40.952;2023-07-30T11:22:52;1.45;;;0.57;;
43509;SDS011;29105;57.764;40.952;2023-07-30T11:25:18;2.45;;;0.88;;
43509;SDS011;29105;57.764;40.952;2023-07-30T11:27:46;2.83;;;0.30;;
43509;SDS011;29105;57.764;40.952;2023-07-30T11:30:12;0.57;;;0.22;;
43509;SDS011;29105;57.764;40.952;2023-07-30T11:32:38;0.82;;;0.40;;
43509;SDS011;29105;57.764;40.952;2023-07-30T11:35:04;1.30;;;0.35;;
43509;SDS011;29105;57.764;40.952;2023-07-30T11:37:31;1.77;;;0.40;;
43509;SDS011;29105;57.764;40.952;2023-07-30T11:39:57;2.47;;;0.50;;
43509;SDS011;29105;57.764;40.952;2023-07-30T11:42:23;1.15;;;0.30;;
43509;SDS011;29105;57.764;40.952;2023-07-30T11:44:48;1.08;;;0.30;;
43509;SDS011;29105;57.764;40.952;2023-07-30T11:47:20;2.20;;;0.45;;
43509;SDS011;29105;57.764;40.952;2023-07-30T11:49:59;1.02;;;0.25;;
43509;SDS011;29105;57.764;40.952;2023-07-30T11:52:24;1.52;;;0.47;;
43509;SDS011;29105;57.764;40.952;2023-07-30T11:55:00;1.23;;;0.45;;
43509;SDS011;29105;57.764;40.952;2023-07-30T11:57:33;2.03;;;0.40;;
43509;SDS011;29105;57.764;40.952;2023-07-30T12:00:02;1.30;;;0.30;;
43509;SDS011;29105;57.764;40.952;2023-07-30T12:02:30;0.93;;;0.43;;
43509;SDS011;29105;57.764;40.952;2023-07-30T12:04:56;1.48;;;0.50;;
43509;SDS011;29105;57.764;40.952;2023-07-30T12:07:22;1.48;;;0.35;;
43509;SDS011;29105;57.764;40.952;2023-07-30T12:09:49;1.13;;;0.30;;
43509;SDS011;29105;57.764;40.952;2023-07-30T12:12:15;1.75;;;0.63;;
43509;SDS011;29105;57.764;40.952;2023-07-30T12:17:16;1.80;;;0.63;;
43509;SDS011;29105;57.764;40.952;2023-07-30T12:19:41;0.80;;;0.30;;
43509;SDS011;29105;57.764;40.952;2023-07-30T12:22:07;2.17;;;0.50;;
43509;SDS011;29105;57.764;40.952;2023-07-30T12:24:33;3.17;;;0.52;;
43509;SDS011;29105;57.764;40.952;2023-07-30T12:26:59;0.85;;;0.25;;
43509;SDS011;29105;57.764;40.952;2023-07-30T12:29:25;1.52;;;0.65;;
43509;SDS011;29105;57.764;40.952;2023-07-30T12:31:51;1.38;;;0.40;;
43509;SDS011;29105;57.764;40.952;2023-07-30T12:34:19;2.28;;;0.65;;
43509;SDS011;29105;57.764;40.952;2023-07-30T12:36:45;3.85;;;0.30;;
43509;SDS011;29105;57.764;40.952;2023-07-30T12:39:11;1.60;;;0.55;;
43509;SDS011;29105;57.764;40.952;2023-07-30T12:41:37;1.30;;;0.35;;
43509;SDS011;29105;57.764;40.952;2023-07-30T12:44:02;0.90;;;0.32;;
43509;SDS011;29105;57.764;40.952;2023-07-30T12:46:30;1.13;;;0.30;;
43509;SDS011;29105;57.764;40.952;2023-07-30T12:48:57;1.38;;;0.40;;
43509;SDS011;29105;57.764;40.952;2023-07-30T12:51:28;1.10;;;0.40;;
43509;SDS011;29105;57.764;40.952;2023-07-30T12:53:54;2.50;;;0.32;;
43509;SDS011;29105;57.764;40.952;2023-07-30T12:56:20;1.05;;;0.60;;
43509;SDS011;29105;57.764;40.952;2023-07-30T12:58:45;0.98;;;0.40;;
43509;SDS011;29105;57.764;40.952;2023-07-30T13:01:11;3.00;;;0.52;;
43509;SDS011;29105;57.764;40.952;2023-07-30T13:03:37;1.17;;;0.65;;
43509;SDS011;29105;57.764;40.952;2023-07-30T13:06:04;1.50;;;0.68;;
43509;SDS011;29105;57.764;40.952;2023-07-30T13:08:30;2.60;;;1.10;;
43509;SDS011;29105;57.764;40.952;2023-07-30T13:10:55;2.65;;;0.82;;
43509;SDS011;29105;57.764;40.952;2023-07-30T13:13:21;2.33;;;0.43;;
43509;SDS011;29105;57.764;40.952;2023-07-30T13:15:48;2.10;;;0.52;;
43509;SDS011;29105;57.764;40.952;2023-07-30T13:18:14;1.33;;;0.52;;
43509;SDS011;29105;57.764;40.952;2023-07-30T13:20:39;1.67;;;0.75;;
43509;SDS011;29105;57.764;40.952;2023-07-30T13:23:05;1.33;;;0.60;;
43509;SDS011;29105;57.764;40.952;2023-07-30T13:25:31;1.45;;;0.70;;
43509;SDS011;29105;57.764;40.952;2023-07-30T13:27:56;2.92;;;0.57;;
43509;SDS011;29105;57.764;40.952;2023-07-30T13:30:22;1.88;;;0.63;;
43509;SDS011;29105;57.764;40.952;2023-07-30T13:32:48;1.55;;;0.52;;
43509;SDS011;29105;57.764;40.952;2023-07-30T13:35:14;1.20;;;0.32;;
43509;SDS011;29105;57.764;40.952;2023-07-30T13:37:39;0.95;;;0.30;;
43509;SDS011;29105;57.764;40.952;2023-07-30T13:40:05;0.50;;;0.20;;
43509;SDS011;29105;57.764;40.952;2023-07-30T13:42:31;1.20;;;0.30;;
43509;SDS011;29105;57.764;40.952;2023-07-30T13:44:57;1.13;;;0.20;;
43509;SDS011;29105;57.764;40.952;2023-07-30T13:47:23;2.25;;;0.47;;
43509;SDS011;29105;57.764;40.952;2023-07-30T13:49:49;1.10;;;0.43;;
43509;SDS011;29105;57.764;40.952;2023-07-30T13:52:14;1.35;;;0.45;;
43509;SDS011;29105;57.764;40.952;2023-07-30T13:54:40;1.13;;;0.30;;
43509;SDS011;29105;57.764;40.952;2023-07-30T13:57:07;1.55;;;0.38;;
43509;SDS011;29105;57.764;40.952;2023-07-30T13:59:34;1.33;;;0.45;;
43509;SDS011;29105;57.764;40.952;2023-07-30T14:02:00;2.78;;;0.40;;
43509;SDS011;29105;57.764;40.952;2023-07-30T14:04:25;1.70;;;0.47;;
43509;SDS011;29105;57.764;40.952;2023-07-30T14:06:51;0.82;;;0.30;;
43509;SDS011;29105;57.764;40.952;2023-07-30T14:09:17;1.50;;;0.55;;
43509;SDS011;29105;57.764;40.952;2023-07-30T14:11:42;1.90;;;0.40;;
43509;SDS011;29105;57.764;40.952;2023-07-30T14:14:13;1.70;;;0.40;;
43509;SDS011;29105;57.764;40.952;2023-07-30T14:16:39;2.08;;;0.40;;
43509;SDS011;29105;57.764;40.952;2023-07-30T14:19:04;1.42;;;0.43;;
43509;SDS011;29105;57.764;40.952;2023-07-30T14:21:32;1.67;;;0.40;;
43509;SDS011;29105;57.764;40.952;2023-07-30T14:23:58;1.02;;;0.32;;
43509;SDS011;29105;57.764;40.952;2023-07-30T14:26:23;1.17;;;0.35;;
43509;SDS011;29105;57.764;40.952;2023-07-30T14:28:51;1.05;;;0.35;;
43509;SDS011;29105;57.764;40.952;2023-07-30T14:31:24;2.70;;;0.30;;
43509;SDS011;29105;57.764;40.952;2023-07-30T14:33:50;1.30;;;0.25;;
43509;SDS011;29105;57.764;40.952;2023-07-30T14:36:16;1.73;;;0.30;;